createdAt,value
2023-10-25T00:00:33.889Z,14.48
2023-10-25T00:03:00.910Z,18.58
2023-10-25T00:05:34.316Z,15.93
2023-10-25T00:08:01.162Z,17.40
2023-10-25T00:10:28.537Z,19.15
2023-10-25T00:12:55.417Z,23.65
2023-10-25T00:15:23.207Z,20.13
2023-10-25T00:17:50.309Z,19.75
2023-10-25T00:20:17.174Z,18.33
2023-10-25T00:22:43.928Z,16.95
2023-10-25T00:25:10.912Z,18.45
2023-10-25T00:27:37.738Z,20.15
2023-10-25T00:30:05.263Z,16.13
2023-10-25T00:32:32.538Z,18.88
2023-10-25T00:34:59.503Z,25.58
2023-10-25T00:37:26.322Z,20.77
2023-10-25T00:39:53.212Z,21.85
2023-10-25T00:42:20.898Z,18.33
2023-10-25T00:44:47.863Z,19.40
2023-10-25T00:47:14.744Z,17.48
2023-10-25T00:49:41.748Z,19.63
2023-10-25T00:52:08.873Z,19.20
2023-10-25T00:54:37.123Z,17.55
2023-10-25T00:57:04.325Z,17.33
2023-10-25T00:59:31.727Z,18.67
2023-10-25T01:01:59.778Z,16.20
2023-10-25T01:04:26.648Z,22.05
2023-10-25T01:06:54.574Z,18.00
2023-10-25T01:09:21.551Z,22.33
2023-10-25T01:11:48.326Z,19.30
2023-10-25T01:14:15.087Z,14.70
2023-10-25T01:16:41.915Z,15.57
2023-10-25T01:19:10.166Z,17.30
2023-10-25T01:21:37.028Z,16.73
2023-10-25T01:24:04.096Z,18.85
2023-10-25T01:26:32.409Z,25.55
2023-10-25T01:28:59.435Z,17.75
2023-10-25T01:31:26.644Z,17.42
2023-10-25T01:33:53.506Z,20.15
2023-10-25T01:36:20.271Z,22.42
2023-10-25T01:38:47.093Z,20.63
2023-10-25T01:41:17.359Z,18.70
2023-10-25T01:43:44.607Z,20.63
2023-10-25T01:46:11.552Z,27.10
2023-10-25T01:48:39.026Z,30.73
2023-10-25T01:51:09.836Z,22.55
2023-10-25T01:53:37.074Z,29.45
2023-10-25T01:56:03.975Z,23.60
2023-10-25T01:58:30.992Z,25.83
2023-10-25T02:00:58.034Z,24.23
2023-10-25T02:03:25.340Z,18.52
2023-10-25T02:05:52.194Z,22.95
2023-10-25T02:08:19.156Z,18.33
2023-10-25T02:10:45.931Z,24.05
2023-10-25T02:13:12.731Z,21.58
2023-10-25T02:15:39.675Z,20.52
2023-10-25T02:18:06.720Z,20.70
2023-10-25T02:20:33.604Z,20.42
2023-10-25T02:23:00.400Z,32.45
2023-10-25T02:25:27.286Z,29.35
2023-10-25T02:27:54.142Z,24.08
2023-10-25T02:30:21.334Z,24.80
2023-10-25T02:32:49.022Z,33.50
2023-10-25T02:35:17.158Z,21.17
2023-10-25T02:37:44.230Z,27.13
2023-10-25T02:40:11.490Z,21.52
2023-10-25T02:42:40.178Z,27.75
2023-10-25T02:45:07.509Z,23.50
2023-10-25T02:47:34.294Z,24.35
2023-10-25T02:50:01.145Z,22.65
2023-10-25T02:52:28.985Z,21.33
2023-10-25T02:54:56.681Z,24.88
2023-10-25T02:57:23.568Z,25.02
2023-10-25T02:59:52.748Z,35.53
2023-10-25T03:02:20.312Z,30.25
2023-10-25T03:04:47.196Z,26.90
2023-10-25T03:07:14.025Z,29.35
2023-10-25T03:09:41.137Z,26.55
2023-10-25T03:12:08.401Z,27.27
2023-10-25T03:14:35.465Z,25.95
2023-10-25T03:17:02.389Z,29.58
2023-10-25T03:19:30.648Z,26.42
2023-10-25T03:21:58.298Z,29.80
2023-10-25T03:24:27.518Z,25.45
2023-10-25T03:26:54.377Z,27.40
2023-10-25T03:29:21.327Z,31.63
2023-10-25T03:31:48.945Z,33.42
2023-10-25T03:34:16.254Z,27.85
2023-10-25T03:36:43.553Z,31.45
2023-10-25T03:39:11.609Z,35.90
2023-10-25T03:41:38.505Z,29.23
2023-10-25T03:44:05.553Z,28.10
2023-10-25T03:46:32.541Z,24.90
2023-10-25T03:48:59.442Z,35.55
2023-10-25T03:51:26.662Z,31.45
2023-10-25T03:53:53.470Z,27.73
2023-10-25T03:56:20.250Z,29.65
2023-10-25T03:58:46.963Z,27.60
2023-10-25T04:01:14.754Z,30.83
2023-10-25T04:03:42.671Z,31.70
2023-10-25T04:06:10.363Z,27.80
2023-10-25T04:08:37.373Z,34.13
2023-10-25T04:11:04.282Z,32.88
2023-10-25T04:13:31.383Z,32.15
2023-10-25T04:16:02.999Z,32.05
2023-10-25T04:18:31.409Z,31.42
2023-10-25T04:20:59.263Z,34.50
2023-10-25T04:23:27.128Z,33.08
2023-10-25T04:25:53.876Z,27.55
2023-10-25T04:28:20.835Z,29.88
2023-10-25T04:30:47.959Z,32.25
2023-10-25T04:33:15.321Z,24.33
2023-10-25T04:35:42.697Z,30.77
2023-10-25T04:38:10.031Z,27.25
2023-10-25T04:40:36.898Z,24.80
2023-10-25T04:43:03.774Z,30.40
2023-10-25T04:45:30.567Z,26.73
2023-10-25T04:47:57.415Z,27.80
2023-10-25T04:50:24.904Z,27.05
2023-10-25T04:52:51.749Z,27.50
2023-10-25T04:55:18.962Z,30.85
2023-10-25T04:57:45.798Z,31.13
2023-10-25T05:00:13.362Z,29.42
2023-10-25T05:02:40.394Z,27.52
2023-10-25T05:05:08.562Z,26.92
2023-10-25T05:07:36.524Z,32.65
2023-10-25T05:10:05.280Z,27.92
2023-10-25T05:12:42.834Z,39.75
2023-10-25T05:15:10.804Z,27.92
2023-10-25T05:17:38.872Z,28.17
2023-10-25T05:20:07.560Z,29.48
2023-10-25T05:22:36.058Z,28.42
2023-10-25T05:25:07.859Z,32.67
2023-10-25T05:27:35.567Z,31.63
2023-10-25T05:30:06.388Z,29.13
2023-10-25T05:32:35.097Z,35.20
2023-10-25T05:35:03.261Z,27.00
2023-10-25T05:37:30.937Z,25.80
2023-10-25T05:39:58.419Z,24.00
2023-10-25T05:42:25.672Z,23.45
2023-10-25T05:44:55.115Z,20.33
2023-10-25T05:47:26.300Z,23.58
2023-10-25T05:49:53.429Z,20.95
2023-10-25T05:52:22.183Z,17.90
2023-10-25T05:54:49.258Z,18.65
2023-10-25T05:57:16.232Z,20.45
2023-10-25T05:59:43.239Z,19.98
2023-10-25T06:02:11.519Z,20.45
2023-10-25T06:04:39.729Z,24.27
2023-10-25T06:07:08.831Z,21.17
2023-10-25T06:09:35.869Z,19.40
2023-10-25T06:12:04.025Z,20.25
2023-10-25T06:14:31.686Z,20.42
2023-10-25T06:16:59.325Z,17.27
2023-10-25T06:19:26.958Z,16.83
2023-10-25T06:21:54.889Z,21.23
2023-10-25T06:24:21.934Z,19.42
2023-10-25T06:26:48.925Z,17.83
2023-10-25T06:29:15.739Z,18.77
2023-10-25T06:31:42.696Z,16.88
2023-10-25T06:34:12.295Z,19.65
2023-10-25T06:36:39.729Z,17.45
2023-10-25T06:39:10.150Z,17.92
2023-10-25T06:41:37.992Z,15.13
2023-10-25T06:44:06.365Z,19.05
2023-10-25T06:46:33.884Z,18.00
2023-10-25T06:49:00.880Z,16.48
2023-10-25T06:51:27.922Z,18.85
2023-10-25T06:53:54.945Z,16.90
2023-10-25T06:56:22.180Z,14.07
2023-10-25T06:58:53.082Z,15.25
2023-10-25T07:01:21.925Z,16.85
2023-10-25T07:03:50.194Z,17.40
2023-10-25T07:06:18.192Z,12.90
2023-10-25T07:08:45.871Z,15.30
2023-10-25T07:11:12.696Z,14.15
2023-10-25T07:13:40.067Z,14.27
2023-10-25T07:16:08.367Z,14.88
2023-10-25T07:18:38.506Z,12.40
2023-10-25T07:21:06.959Z,13.02
2023-10-25T07:23:33.799Z,12.57
2023-10-25T07:26:00.527Z,14.73
2023-10-25T07:28:27.716Z,14.73
2023-10-25T07:30:54.705Z,14.45
2023-10-25T07:33:22.434Z,12.95
2023-10-25T07:35:49.710Z,13.35
2023-10-25T07:38:17.049Z,13.95
2023-10-25T07:40:44.074Z,15.05
2023-10-25T07:43:11.143Z,13.40
2023-10-25T07:45:38.069Z,13.65
2023-10-25T07:48:05.339Z,14.07
2023-10-25T07:50:32.596Z,13.07
2023-10-25T07:52:59.539Z,12.88
2023-10-25T08:00:25.597Z,14.85
2023-10-25T08:02:52.438Z,14.02
2023-10-25T08:05:19.322Z,15.45
2023-10-25T08:07:48.759Z,11.13
2023-10-25T08:10:15.973Z,12.60
2023-10-25T08:12:42.864Z,17.65
2023-10-25T08:15:09.972Z,10.30
2023-10-25T08:17:36.905Z,11.60
2023-10-25T08:20:06.111Z,7.63
2023-10-25T08:22:35.090Z,8.07
2023-10-25T08:25:02.182Z,8.40
2023-10-25T08:27:28.976Z,5.53
2023-10-25T08:29:57.377Z,7.72
2023-10-25T08:32:24.613Z,5.93
2023-10-25T08:34:51.593Z,10.50
2023-10-25T08:37:19.060Z,8.30
2023-10-25T08:39:45.778Z,4.85
2023-10-25T08:42:15.820Z,5.82
2023-10-25T08:44:44.197Z,5.28
2023-10-25T08:47:14.133Z,6.18
2023-10-25T08:49:41.001Z,4.60
2023-10-25T08:52:08.454Z,8.63
2023-10-25T08:54:37.138Z,5.93
2023-10-25T08:57:05.876Z,8.23
2023-10-25T08:59:41.793Z,4.70
2023-10-25T09:02:10.245Z,6.03
2023-10-25T09:04:37.088Z,7.38
2023-10-25T09:07:27.364Z,4.70
2023-10-25T09:09:54.062Z,6.95
2023-10-25T09:12:24.523Z,8.80
2023-10-25T09:14:52.546Z,6.20
2023-10-25T09:17:19.803Z,4.97
2023-10-25T09:19:48.290Z,4.72
2023-10-25T09:22:31.233Z,4.75
2023-10-25T09:25:00.135Z,6.85
2023-10-25T09:27:27.212Z,5.28
2023-10-25T09:29:54.646Z,4.32
2023-10-25T09:32:22.755Z,11.23
2023-10-25T09:34:50.002Z,9.57
2023-10-25T09:37:16.936Z,6.55
2023-10-25T09:39:44.003Z,5.20
2023-10-25T09:42:11.725Z,6.68
2023-10-25T09:44:46.785Z,7.65
2023-10-25T09:47:16.875Z,7.47
2023-10-25T09:49:45.130Z,7.70
2023-10-25T09:52:14.438Z,5.88
2023-10-25T09:54:48.605Z,8.75
2023-10-25T09:57:15.996Z,6.15
2023-10-25T09:59:43.486Z,8.40
2023-10-25T10:02:13.827Z,6.45
2023-10-25T10:04:46.413Z,6.25
2023-10-25T10:07:31.832Z,6.57
2023-10-25T10:10:20.740Z,8.07
2023-10-25T10:12:47.960Z,6.00
2023-10-25T10:15:15.664Z,7.78
2023-10-25T10:17:44.368Z,7.03
2023-10-25T10:20:25.614Z,7.32
2023-10-25T10:23:05.713Z,6.40
2023-10-25T10:25:51.544Z,17.23
2023-10-25T10:28:43.693Z,6.35
2023-10-25T10:31:11.942Z,6.32
2023-10-25T10:33:45.912Z,5.82
2023-10-25T10:36:23.950Z,5.25
2023-10-25T10:39:17.623Z,4.82
2023-10-25T10:41:45.638Z,7.68
2023-10-25T10:44:12.654Z,6.60
2023-10-25T10:46:49.887Z,6.72
2023-10-25T10:49:19.939Z,10.05
2023-10-25T10:51:48.244Z,10.98
2023-10-25T10:54:17.041Z,9.00
2023-10-25T10:56:44.823Z,6.25
2023-10-25T10:59:11.646Z,8.85
2023-10-25T11:01:38.453Z,6.80
2023-10-25T11:04:07.079Z,9.48
2023-10-25T11:06:33.891Z,8.65
2023-10-25T11:09:00.918Z,7.43
2023-10-25T11:11:27.679Z,7.38
2023-10-25T11:13:54.541Z,8.25
2023-10-25T11:16:21.258Z,5.63
2023-10-25T11:18:48.037Z,9.25
2023-10-25T11:21:15.650Z,6.82
2023-10-25T11:23:43.471Z,7.63
2023-10-25T11:26:10.289Z,9.70
2023-10-25T11:28:40.074Z,8.98
2023-10-25T11:31:06.891Z,7.97
2023-10-25T11:33:45.232Z,10.55
2023-10-25T11:36:12.884Z,8.95
2023-10-25T11:38:44.651Z,10.43
2023-10-25T11:41:12.185Z,9.27
2023-10-25T11:43:39.819Z,9.27
2023-10-25T11:46:06.583Z,8.60
2023-10-25T11:48:34.892Z,10.10
2023-10-25T11:51:02.651Z,6.57
2023-10-25T11:53:29.609Z,7.85
2023-10-25T11:56:00.051Z,7.78
2023-10-25T11:58:30.057Z,7.28
2023-10-25T12:00:56.786Z,4.15
2023-10-25T12:03:23.648Z,4.35
2023-10-25T12:05:50.597Z,7.43
2023-10-25T12:08:17.350Z,6.15
2023-10-25T12:10:44.099Z,4.47
2023-10-25T12:13:10.945Z,7.82
2023-10-25T12:15:37.750Z,7.60
2023-10-25T12:18:04.795Z,6.90
2023-10-25T12:20:34.044Z,8.65
2023-10-25T12:23:00.833Z,6.82
2023-10-25T12:25:28.125Z,7.32
2023-10-25T12:27:54.882Z,11.82
2023-10-25T12:30:21.709Z,8.82
2023-10-25T12:32:48.534Z,13.38
2023-10-25T12:35:15.510Z,7.80
2023-10-25T12:37:42.227Z,8.73
2023-10-25T12:40:09.615Z,10.30
2023-10-25T12:42:36.398Z,6.93
2023-10-25T12:45:03.276Z,6.57
2023-10-25T12:47:30.762Z,6.82
2023-10-25T12:49:57.547Z,4.85
2023-10-25T12:52:24.263Z,4.57
2023-10-25T12:54:51.012Z,4.75
2023-10-25T12:57:17.900Z,9.20
2023-10-25T12:59:44.719Z,4.05
2023-10-25T13:02:11.511Z,3.20
2023-10-25T13:04:38.199Z,4.10
2023-10-25T13:07:05.068Z,2.83
2023-10-25T13:09:31.770Z,5.70
2023-10-25T13:11:58.503Z,3.63
2023-10-25T13:14:25.317Z,4.38
2023-10-25T13:16:54.357Z,4.78
2023-10-25T13:19:25.062Z,6.70
2023-10-25T13:21:52.240Z,4.75
2023-10-25T13:24:18.965Z,3.92
2023-10-25T13:26:45.653Z,4.93
2023-10-25T13:29:13.244Z,8.65
2023-10-25T13:31:40.025Z,4.25
2023-10-25T13:34:07.201Z,9.35
2023-10-25T13:36:33.971Z,9.23
2023-10-25T13:39:00.742Z,6.50
2023-10-25T13:41:27.690Z,9.45
2023-10-25T13:43:54.503Z,6.40
2023-10-25T13:46:21.246Z,7.07
2023-10-25T13:48:48.137Z,5.93
2023-10-25T13:51:15.008Z,6.93
2023-10-25T13:53:41.718Z,5.95
2023-10-25T13:56:13.400Z,9.00
2023-10-25T13:58:41.030Z,9.38
2023-10-25T14:01:07.985Z,5.40
2023-10-25T14:03:34.918Z,5.57
2023-10-25T14:06:05.951Z,8.43
2023-10-25T14:08:33.463Z,9.02
2023-10-25T14:11:00.428Z,8.25
2023-10-25T14:13:39.142Z,8.43
2023-10-25T14:16:08.081Z,6.95
2023-10-25T14:18:35.083Z,8.02
2023-10-25T14:21:01.950Z,7.20
2023-10-25T14:23:28.901Z,7.32
2023-10-25T14:25:55.904Z,5.72
2023-10-25T14:28:23.280Z,8.52
2023-10-25T14:30:50.203Z,8.27
2023-10-25T14:33:17.227Z,9.90
2023-10-25T14:35:44.279Z,11.02
2023-10-25T14:38:11.126Z,13.55
2023-10-25T14:40:41.922Z,10.38
2023-10-25T14:43:09.034Z,9.35
2023-10-25T14:45:35.949Z,8.90
2023-10-25T14:48:03.905Z,6.78
2023-10-25T14:50:37.799Z,10.00
2023-10-25T14:53:05.153Z,6.78
2023-10-25T14:55:36.272Z,6.97
2023-10-25T14:58:03.125Z,9.27
2023-10-25T15:00:30.001Z,7.40
2023-10-25T15:02:56.997Z,6.72
2023-10-25T15:05:25.957Z,8.32
2023-10-25T15:07:54.400Z,9.00
2023-10-25T15:10:21.713Z,7.53
2023-10-25T15:12:48.684Z,8.02
2023-10-25T15:15:15.695Z,7.47
2023-10-25T15:17:46.536Z,10.50
2023-10-25T15:20:14.707Z,14.68
2023-10-25T15:22:41.803Z,13.35
2023-10-25T15:25:09.129Z,12.80
2023-10-25T15:27:35.919Z,12.63
2023-10-25T15:30:03.090Z,9.80
2023-10-25T15:32:29.874Z,8.45
2023-10-25T15:34:56.739Z,11.23
2023-10-25T15:37:23.704Z,11.55
2023-10-25T15:40:08.809Z,10.90
2023-10-25T15:42:40.344Z,14.23
2023-10-25T15:45:11.517Z,11.27
2023-10-25T15:47:38.400Z,15.40
2023-10-25T15:50:05.524Z,16.17
2023-10-25T15:52:32.280Z,12.13
2023-10-25T15:54:59.849Z,7.80
2023-10-25T15:57:26.629Z,7.82
2023-10-25T15:59:53.443Z,5.35
2023-10-25T16:02:20.528Z,5.63
2023-10-25T16:04:47.773Z,10.45
2023-10-25T16:07:14.827Z,3.10
2023-10-25T16:09:41.730Z,5.07
2023-10-25T16:12:08.957Z,4.50
2023-10-25T16:14:35.691Z,8.43
2023-10-25T16:17:02.622Z,8.15
2023-10-25T16:19:31.268Z,7.28
2023-10-25T16:21:58.724Z,11.27
2023-10-25T16:24:25.475Z,7.68
2023-10-25T16:26:52.302Z,5.55
2023-10-25T16:29:19.122Z,7.30
2023-10-25T16:31:46.308Z,5.50
2023-10-25T16:34:19.480Z,6.70
2023-10-25T16:37:00.986Z,7.25
2023-10-25T16:39:48.553Z,5.07
2023-10-25T16:46:34.719Z,6.93
2023-10-25T16:49:03.621Z,6.00
2023-10-25T16:51:34.992Z,6.03
2023-10-25T16:54:02.228Z,5.70
2023-10-25T16:56:34.442Z,6.63
2023-10-25T16:59:01.378Z,4.65
2023-10-25T17:01:28.273Z,4.70
2023-10-25T17:04:05.607Z,8.30
2023-10-25T17:06:32.855Z,15.52
2023-10-25T17:09:12.749Z,25.15
2023-10-25T17:11:39.973Z,27.10
2023-10-25T17:14:09.245Z,17.20
2023-10-25T17:16:39.077Z,13.38
2023-10-25T17:19:05.904Z,11.57
2023-10-25T17:21:34.016Z,9.15
2023-10-25T17:24:06.027Z,10.85
2023-10-25T17:26:32.842Z,11.00
2023-10-25T17:28:59.796Z,15.52
2023-10-25T17:31:34.184Z,10.25
2023-10-25T17:34:02.919Z,10.35
2023-10-25T17:36:34.671Z,9.40
2023-10-25T17:42:59.766Z,5.70
2023-10-25T17:49:03.388Z,5.60
2023-10-25T17:51:30.300Z,5.55
2023-10-25T17:54:08.790Z,4.18
2023-10-25T17:56:51.426Z,4.13
2023-10-25T18:02:58.411Z,7.20
2023-10-25T18:05:25.364Z,9.50
2023-10-25T18:07:52.190Z,9.43
2023-10-25T18:10:22.171Z,12.93
2023-10-25T18:12:49.758Z,4.65
2023-10-25T18:15:16.918Z,14.27
2023-10-25T18:17:43.964Z,11.13
2023-10-25T18:20:12.818Z,18.13
2023-10-25T18:22:39.857Z,21.88
2023-10-25T18:25:07.170Z,21.25
2023-10-25T18:27:34.008Z,20.17
2023-10-25T18:30:20.252Z,21.90
2023-10-25T18:32:47.648Z,16.10
2023-10-25T18:35:14.713Z,22.48
2023-10-25T18:37:41.534Z,24.65
2023-10-25T18:40:09.293Z,31.80
2023-10-25T18:42:36.208Z,32.00
2023-10-25T18:45:04.786Z,18.98
2023-10-25T18:47:33.524Z,17.58
2023-10-25T18:50:00.702Z,12.85
2023-10-25T18:52:27.572Z,8.35
2023-10-25T18:54:57.456Z,10.85
2023-10-25T18:57:24.554Z,7.45
2023-10-25T18:59:58.195Z,9.68
2023-10-25T19:02:26.490Z,9.75
2023-10-25T19:06:30.970Z,6.95
2023-10-25T19:08:24.838Z,3.53
2023-10-25T19:10:35.395Z,4.50
2023-10-25T19:13:04.102Z,4.90
2023-10-25T19:15:31.723Z,5.35
2023-10-25T19:17:58.885Z,3.08
2023-10-25T19:20:27.534Z,1.17
2023-10-25T19:22:54.526Z,2.80
2023-10-25T19:25:21.299Z,1.73
2023-10-25T19:27:48.609Z,1.15
2023-10-25T19:30:16.310Z,7.93
2023-10-25T19:32:43.917Z,2.00
2023-10-25T19:35:10.871Z,2.42
2023-10-25T19:37:37.744Z,3.20
2023-10-25T19:40:04.874Z,6.13
2023-10-25T19:42:31.778Z,1.50
2023-10-25T19:44:58.619Z,1.23
2023-10-25T19:47:25.702Z,2.35
2023-10-25T19:49:52.708Z,1.60
2023-10-25T19:52:19.540Z,1.27
2023-10-25T19:54:46.444Z,0.98
2023-10-25T19:57:13.290Z,7.38
2023-10-25T19:59:40.163Z,6.38
2023-10-25T20:02:06.998Z,2.80
2023-10-25T20:04:34.011Z,7.65
2023-10-25T20:07:00.799Z,3.17
2023-10-25T20:09:27.688Z,4.13
2023-10-25T20:11:54.601Z,2.13
2023-10-25T20:14:21.392Z,2.40
2023-10-25T20:16:48.230Z,1.63
2023-10-25T20:19:14.976Z,1.42
2023-10-25T20:21:42.848Z,2.55
2023-10-25T20:24:09.888Z,1.33
2023-10-25T20:26:37.678Z,1.60
2023-10-25T20:29:05.352Z,3.75
2023-10-25T20:31:32.276Z,2.28
2023-10-25T20:33:59.052Z,1.52
2023-10-25T20:36:25.872Z,1.13
2023-10-25T20:38:52.701Z,2.00
2023-10-25T20:41:19.538Z,1.52
2023-10-25T20:43:46.352Z,2.05
2023-10-25T20:46:13.167Z,1.77
2023-10-25T20:48:41.591Z,2.92
2023-10-25T20:51:08.469Z,0.77
2023-10-25T20:53:35.719Z,1.65
2023-10-25T20:56:02.640Z,1.00
2023-10-25T20:58:29.415Z,1.42
2023-10-25T21:00:56.184Z,2.25
2023-10-25T21:03:23.475Z,1.13
2023-10-25T21:05:55.121Z,1.42
2023-10-25T21:08:22.001Z,0.77
2023-10-25T21:10:48.856Z,0.80
2023-10-25T21:13:15.707Z,3.85
2023-10-25T21:15:42.425Z,1.40
2023-10-25T21:18:11.619Z,1.83
2023-10-25T21:20:45.555Z,3.72
2023-10-25T21:23:12.370Z,1.50
2023-10-25T21:25:39.190Z,3.90
2023-10-25T21:28:06.013Z,1.98
2023-10-25T21:30:32.988Z,1.63
2023-10-25T21:32:59.937Z,1.20
2023-10-25T21:35:26.774Z,1.35
2023-10-25T21:37:53.502Z,4.85
2023-10-25T21:40:20.417Z,3.05
2023-10-25T21:42:47.240Z,1.58
2023-10-25T21:45:14.135Z,1.25
2023-10-25T21:47:41.111Z,2.47
2023-10-25T21:50:08.238Z,2.50
2023-10-25T21:52:35.024Z,4.22
2023-10-25T21:55:01.788Z,4.55
2023-10-25T21:57:28.695Z,3.50
2023-10-25T21:59:55.666Z,2.75
2023-10-25T22:02:27.166Z,4.00
2023-10-25T22:04:55.546Z,1.80
2023-10-25T22:07:22.645Z,2.50
2023-10-25T22:09:49.881Z,0.85
2023-10-25T22:12:17.086Z,1.08
2023-10-25T22:14:44.361Z,2.58
2023-10-25T22:17:11.360Z,3.83
2023-10-25T22:19:38.199Z,0.80
2023-10-25T22:22:05.195Z,1.85
2023-10-25T22:24:32.001Z,1.48
2023-10-25T22:26:58.772Z,1.17
2023-10-25T22:29:25.505Z,2.60
2023-10-25T22:31:52.498Z,1.63
2023-10-25T22:34:20.535Z,1.33
2023-10-25T22:36:50.771Z,1.05
2023-10-25T22:39:18.747Z,1.02
2023-10-25T22:41:46.546Z,2.95
2023-10-25T22:44:14.449Z,1.48
2023-10-25T22:46:41.241Z,0.75
2023-10-25T22:49:08.325Z,0.80
2023-10-25T22:51:35.250Z,1.67
2023-10-25T22:54:02.192Z,7.25
2023-10-25T22:56:29.138Z,1.95
2023-10-25T22:58:56.598Z,2.00
2023-10-25T23:01:23.575Z,1.50
2023-10-25T23:03:50.451Z,3.28
2023-10-25T23:06:17.209Z,2.75
2023-10-25T23:08:44.138Z,1.38
2023-10-25T23:11:11.003Z,1.40
2023-10-25T23:13:37.910Z,0.57
2023-10-25T23:16:04.920Z,0.80
2023-10-25T23:18:31.785Z,0.70
2023-10-25T23:20:58.658Z,0.88
2023-10-25T23:23:25.548Z,0.98
2023-10-25T23:25:52.519Z,1.05
2023-10-25T23:28:19.358Z,0.70
2023-10-25T23:30:46.116Z,2.50
2023-10-25T23:33:12.991Z,1.17
2023-10-25T23:35:39.930Z,0.63
2023-10-25T23:38:06.817Z,0.85
2023-10-25T23:40:33.572Z,1.05
2023-10-25T23:43:00.542Z,0.57
2023-10-25T23:45:27.538Z,0.77
2023-10-25T23:47:54.413Z,1.42
2023-10-25T23:50:21.300Z,1.60
2023-10-25T23:52:48.214Z,2.10
2023-10-25T23:55:15.055Z,3.42
2023-10-25T23:57:42.096Z,1.05
